Time;durP1;ratioP1;P1;durP2;ratioP2;P2;SDS_P1;SDS_P2;PMS_P1;PMS_P2;Temp;Humidity;BMP_temperature;BMP_pressure;BME280_temperature;BME280_humidity;BME280_pressure;Samples;Min_cycle;Max_cycle;Signal;HPM_P1;HPM_P2
2022/03/08 00:01:35;;;;;;;49.80;21.85;;;;;;;-0.99;67.96;100974.48;2094345;83;21023;-80
2022/03/08 00:04:37;;;;;;;49.00;21.52;;;;;;;-1.01;68.07;100974.57;2096136;83;21060;-79
2022/03/08 00:07:38;;;;;;;47.13;20.20;;;;;;;-1.05;68.08;100970.88;2098690;83;21513;-79
2022/03/08 00:10:41;;;;;;;45.98;20.05;;;;;;;-1.10;68.09;100965.86;2097198;83;21014;-83
2022/03/08 00:13:42;;;;;;;47.23;19.27;;;;;;;-1.13;68.11;100969.91;2095071;83;20994;-81
2022/03/08 00:16:44;;;;;;;51.60;20.15;;;;;;;-1.09;68.14;100971.94;2093977;83;21003;-78
2022/03/08 00:19:45;;;;;;;44.33;21.05;;;;;;;-1.08;67.97;100974.45;2095092;83;21041;-81
2022/03/08 00:22:47;;;;;;;44.53;20.23;;;;;;;-1.13;68.08;100968.61;2092301;83;21505;-81
2022/03/08 00:25:49;;;;;;;45.58;20.05;;;;;;;-1.17;68.06;100972.29;2094588;83;21015;-80
2022/03/08 00:28:50;;;;;;;45.67;19.67;;;;;;;-1.24;68.04;100972.17;2093363;83;21046;-82
2022/03/08 00:31:52;;;;;;;43.45;19.92;;;;;;;-1.28;68.10;100971.48;2095005;83;21005;-79
2022/03/08 00:34:53;;;;;;;47.33;20.82;;;;;;;-1.29;68.16;100966.36;2096739;83;21105;-76
2022/03/08 00:37:59;;;;;;;44.88;20.72;;;;;;;-1.26;68.20;100974.02;2108147;82;21033;-80
2022/03/08 00:41:00;;;;;;;46.55;21.33;;;;;;;-1.24;68.09;100976.95;2111254;83;21038;-78
2022/03/08 00:44:03;;;;;;;44.67;20.02;;;;;;;-1.23;68.07;100973.88;2110688;83;21039;-79
2022/03/08 00:47:05;;;;;;;51.02;21.35;;;;;;;-1.25;68.04;100971.33;2111309;83;21060;-79
2022/03/08 00:50:12;;;;;;;53.78;21.62;;;;;;;-1.26;68.13;100970.12;2107678;83;21551;-78
2022/03/08 00:53:13;;;;;;;49.55;20.68;;;;;;;-1.27;68.09;100969.25;2107308;82;21039;-79
2022/03/08 00:56:15;;;;;;;50.83;20.52;;;;;;;-1.28;68.08;100966.73;2108840;83;21599;-79
2022/03/08 00:59:16;;;;;;;51.55;21.97;;;;;;;-1.30;67.99;100964.64;2111751;83;21000;-81
2022/03/08 01:02:17;;;;;;;52.23;22.30;;;;;;;-1.35;67.92;100964.88;2109308;83;21294;-80
2022/03/08 01:05:19;;;;;;;51.73;22.42;;;;;;;-1.39;68.02;100959.40;2108951;83;21081;-81
2022/03/08 01:08:20;;;;;;;52.00;23.38;;;;;;;-1.42;68.21;100959.08;2107320;83;21841;-76
2022/03/08 01:11:21;;;;;;;49.00;21.02;;;;;;;-1.43;68.21;100960.47;2107636;83;20996;-81
2022/03/08 01:14:25;;;;;;;52.25;22.07;;;;;;;-1.44;68.32;100963.97;2108622;82;21471;-81
2022/03/08 01:17:26;;;;;;;57.03;24.18;;;;;;;-1.45;68.31;100967.03;2105033;83;21057;-80
2022/03/08 01:20:27;;;;;;;55.52;26.00;;;;;;;-1.62;68.18;100961.74;2101586;83;21007;-78
2022/03/08 01:23:29;;;;;;;73.92;29.80;;;;;;;-1.72;68.38;100966.95;2108958;82;21078;-78
2022/03/08 01:26:31;;;;;;;72.75;26.12;;;;;;;-1.80;68.49;100966.02;2107554;83;21011;-81
2022/03/08 01:29:33;;;;;;;51.63;22.55;;;;;;;-1.86;68.58;100965.83;2105749;83;21439;-79
2022/03/08 01:32:34;;;;;;;51.10;22.15;;;;;;;-1.89;68.50;100962.02;2109675;83;21007;-77
2022/03/08 01:35:36;;;;;;;49.77;22.05;;;;;;;-2.11;68.89;100969.06;2109004;82;21539;-80
2022/03/08 01:38:37;;;;;;;50.15;23.95;;;;;;;-2.23;69.12;100961.78;2088009;84;21001;-79
2022/03/08 01:41:38;;;;;;;79.77;29.85;;;;;;;-2.27;69.31;100967.12;2090230;84;21030;-84
2022/03/08 01:44:45;;;;;;;58.28;25.75;;;;;;;-2.28;69.39;100967.17;2088281;84;21044;-75
2022/03/08 01:47:48;;;;;;;57.50;23.75;;;;;;;-2.28;69.50;100969.34;2090084;84;21492;-81
2022/03/08 01:50:50;;;;;;;54.42;23.87;;;;;;;-2.26;69.55;100970.56;2088180;84;21093;-79
2022/03/08 01:53:51;;;;;;;53.70;22.58;;;;;;;-2.27;69.53;100973.63;2085786;84;21025;-81
2022/03/08 01:56:52;;;;;;;54.40;24.07;;;;;;;-2.37;69.91;100975.36;2088457;84;21532;-78
2022/03/08 01:59:54;;;;;;;53.65;22.82;;;;;;;-2.45;69.92;100986.52;2092199;84;21006;-79
2022/03/08 02:02:56;;;;;;;58.23;23.87;;;;;;;-2.57;70.09;100980.07;2086110;84;22136;-83
2022/03/08 02:05:58;;;;;;;52.95;22.77;;;;;;;-2.60;70.29;100986.23;2090246;84;21021;-78
2022/03/08 02:09:00;;;;;;;56.92;23.98;;;;;;;-2.64;70.38;100991.64;2086216;84;20974;-81
2022/03/08 02:12:02;;;;;;;49.83;22.73;;;;;;;-2.62;70.50;100995.00;2087462;84;21029;-78
2022/03/08 02:15:25;;;;;;;50.45;23.67;;;;;;;-2.58;70.40;100988.78;2088320;84;21042;-79
2022/03/08 02:18:27;;;;;;;52.98;23.42;;;;;;;-2.56;70.38;100981.75;2090019;84;21077;-78
2022/03/08 02:21:34;;;;;;;49.63;22.32;;;;;;;-2.54;70.34;100972.15;2086392;84;21061;-77
2022/03/08 02:24:36;;;;;;;52.38;24.23;;;;;;;-2.46;70.40;100972.69;2089246;84;21052;-81
2022/03/08 02:27:47;;;;;;;54.42;22.70;;;;;;;-2.45;70.24;100971.77;2090090;84;20986;-80
2022/03/08 02:30:48;;;;;;;45.48;21.30;;;;;;;-2.44;70.53;100969.58;2087676;84;21065;-83
2022/03/08 02:33:50;;;;;;;51.13;22.35;;;;;;;-2.47;70.64;100965.80;2087784;84;20952;-84
2022/03/08 02:37:14;;;;;;;50.67;22.02;;;;;;;-2.44;70.63;100963.08;2094605;83;21076;-82
2022/03/08 02:40:18;;;;;;;46.15;21.93;;;;;;;-2.49;70.62;100967.16;2105345;82;21617;-80
2022/03/08 02:43:19;;;;;;;53.25;23.35;;;;;;;-2.52;70.26;100972.48;2109694;82;21022;-80
2022/03/08 02:46:20;;;;;;;57.50;23.70;;;;;;;-2.59;70.29;100977.98;2105007;83;21025;-79
2022/03/08 02:49:22;;;;;;;54.27;25.50;;;;;;;-2.59;70.46;100966.28;2108622;82;21031;-77
2022/03/08 02:52:23;;;;;;;59.65;24.90;;;;;;;-2.60;70.22;100975.00;2109054;82;21098;-81
2022/03/08 02:55:29;;;;;;;56.90;25.40;;;;;;;-2.63;70.35;100975.13;2108629;83;21513;-79
2022/03/08 02:58:30;;;;;;;52.00;23.40;;;;;;;-2.65;70.32;100975.64;2110145;82;21501;-80
2022/03/08 03:01:32;;;;;;;58.25;23.22;;;;;;;-2.67;70.34;100975.71;2106187;83;21109;-81
2022/03/08 03:04:33;;;;;;;54.85;24.60;;;;;;;-2.66;70.12;100973.50;2108119;83;21002;-80
2022/03/08 03:07:35;;;;;;;47.90;23.60;;;;;;;-2.69;70.12;100977.98;2108858;83;21481;-77
2022/03/08 03:10:36;;;;;;;56.13;23.77;;;;;;;-2.68;70.08;100980.50;2105711;82;22157;-78
2022/03/08 03:13:37;;;;;;;51.15;22.70;;;;;;;-2.71;70.06;100980.16;2106226;83;21053;-79
2022/03/08 03:16:39;;;;;;;49.95;22.30;;;;;;;-2.69;69.95;100982.72;2111086;82;21015;-76
2022/03/08 03:19:40;;;;;;;51.73;23.27;;;;;;;-2.73;69.82;100975.50;2108194;83;21053;-75
2022/03/08 03:22:42;;;;;;;56.95;23.27;;;;;;;-2.81;69.99;100980.61;2108301;83;21553;-82
2022/03/08 03:25:43;;;;;;;46.37;22.10;;;;;;;-2.91;69.92;100987.91;2108566;83;21070;-78
2022/03/08 03:28:44;;;;;;;50.20;22.98;;;;;;;-2.98;69.92;100987.77;2105043;83;21482;-79
2022/03/08 03:31:46;;;;;;;47.62;22.55;;;;;;;-3.02;70.08;100985.72;2110536;82;21076;-78
2022/03/08 03:34:47;;;;;;;50.80;23.00;;;;;;;-3.06;70.20;100995.84;2104593;83;20991;-79
2022/03/08 03:37:48;;;;;;;52.35;22.90;;;;;;;-3.05;70.22;101000.11;2100361;83;21130;-78
2022/03/08 03:40:49;;;;;;;56.77;24.02;;;;;;;-3.07;70.22;100997.18;2098089;83;21074;-80
2022/03/08 03:43:50;;;;;;;52.38;21.90;;;;;;;-3.07;70.31;100996.75;2095910;83;21651;-78
2022/03/08 03:46:52;;;;;;;46.23;21.82;;;;;;;-3.08;70.26;101000.69;2097198;83;20986;-78
2022/03/08 03:49:53;;;;;;;46.73;22.15;;;;;;;-3.07;70.21;101002.38;2096978;83;21087;-80
2022/03/08 03:52:54;;;;;;;49.08;22.60;;;;;;;-3.13;70.18;101000.02;2091232;83;21028;-81
2022/03/08 03:55:55;;;;;;;52.75;23.75;;;;;;;-3.14;70.25;100999.63;2095769;83;20983;-80
2022/03/08 03:58:56;;;;;;;46.92;22.32;;;;;;;-3.22;69.97;100993.42;2095122;83;21058;-80
2022/03/08 04:01:57;;;;;;;47.15;22.20;;;;;;;-3.30;69.91;101006.67;2096008;83;21586;-80
2022/03/08 04:04:59;;;;;;;45.50;21.70;;;;;;;-3.30;70.03;101013.16;2094012;83;21003;-79
2022/03/08 04:08:00;;;;;;;47.73;22.45;;;;;;;-3.37;70.07;101010.42;2097096;83;20983;-79
2022/03/08 04:11:01;;;;;;;48.83;21.65;;;;;;;-3.40;70.11;100995.80;2095210;83;21021;-80
2022/03/08 04:14:03;;;;;;;48.85;22.45;;;;;;;-3.43;70.29;100993.32;2092499;84;21078;-83
2022/03/08 04:17:05;;;;;;;50.25;23.45;;;;;;;-3.42;70.51;101007.14;2098649;83;20995;-79
2022/03/08 04:20:09;;;;;;;56.85;23.83;;;;;;;-3.41;70.41;101015.30;2097966;83;21062;-76
2022/03/08 04:23:11;;;;;;;49.65;22.30;;;;;;;-3.43;70.45;101018.44;2098219;83;21015;-75
2022/03/08 04:26:12;;;;;;;52.55;22.58;;;;;;;-3.45;70.18;101017.17;2096948;83;21069;-78
2022/03/08 04:29:14;;;;;;;48.13;21.83;;;;;;;-3.52;70.21;101018.31;2093224;83;21206;-83
2022/03/08 04:32:16;;;;;;;44.00;20.70;;;;;;;-3.59;70.26;101019.42;2095655;82;22211;-78
2022/03/08 04:35:18;;;;;;;53.28;22.77;;;;;;;-3.69;70.17;101028.41;2098214;83;21030;-77
2022/03/08 04:38:20;;;;;;;53.90;24.20;;;;;;;-3.75;70.25;101029.94;2096256;83;21555;-77
2022/03/08 04:41:22;;;;;;;129.47;56.63;;;;;;;-3.80;70.41;101032.70;2095199;83;21666;-78
2022/03/08 04:44:23;;;;;;;90.60;33.85;;;;;;;-3.79;70.74;101042.62;2094225;83;21066;-79
2022/03/08 04:47:24;;;;;;;59.88;25.92;;;;;;;-3.80;70.54;101046.97;2094391;82;21069;-78
2022/03/08 04:50:25;;;;;;;49.13;22.90;;;;;;;-3.82;70.35;101050.52;2096336;83;20966;-79
2022/03/08 04:53:27;;;;;;;42.27;20.12;;;;;;;-3.82;70.55;101051.36;2095414;83;21013;-79
2022/03/08 04:56:28;;;;;;;51.58;23.02;;;;;;;-3.79;70.58;101048.66;2094221;83;21079;-81
2022/03/08 04:59:30;;;;;;;57.40;23.30;;;;;;;-3.81;70.43;101046.55;2099729;83;21051;-80
2022/03/08 05:02:31;;;;;;;58.98;23.95;;;;;;;-3.87;70.50;101045.02;2096422;83;21081;-80
2022/03/08 05:05:33;;;;;;;56.63;25.32;;;;;;;-3.89;70.65;101036.44;2097621;83;21652;-82
2022/03/08 05:08:34;;;;;;;53.95;25.85;;;;;;;-3.94;70.71;101037.48;2099543;83;21550;-76
2022/03/08 05:11:36;;;;;;;50.92;23.65;;;;;;;-4.03;71.18;101050.31;2095056;83;21075;-78
2022/03/08 05:14:37;;;;;;;61.60;25.43;;;;;;;-4.01;71.57;101050.28;2093674;83;21541;-80
2022/03/08 05:17:38;;;;;;;60.67;25.50;;;;;;;-3.95;71.63;101051.36;2096355;83;21022;-77
2022/03/08 05:20:40;;;;;;;59.80;25.55;;;;;;;-3.92;71.52;101055.98;2095475;83;21029;-77
2022/03/08 05:23:41;;;;;;;55.38;25.62;;;;;;;-3.82;71.64;101057.84;2094995;83;21058;-77
2022/03/08 05:26:42;;;;;;;60.58;24.23;;;;;;;-3.71;71.58;101060.91;2096786;83;21548;-76
2022/03/08 05:29:43;;;;;;;49.45;22.75;;;;;;;-3.62;71.57;101046.31;2097025;83;20986;-80
2022/03/08 05:32:45;;;;;;;51.30;23.35;;;;;;;-3.52;71.62;101047.28;2096793;83;21526;-79
2022/03/08 05:35:46;;;;;;;53.58;23.25;;;;;;;-3.48;71.81;101048.43;2091934;83;20983;-79
2022/03/08 05:38:47;;;;;;;54.25;24.12;;;;;;;-3.45;71.94;101056.55;2094702;83;21033;-79
2022/03/08 05:41:49;;;;;;;73.78;30.35;;;;;;;-3.40;72.32;101062.44;2097374;83;21040;-77
2022/03/08 05:44:51;;;;;;;83.03;32.78;;;;;;;-3.32;72.58;101074.69;2092763;83;21551;-80
2022/03/08 05:47:52;;;;;;;88.22;35.20;;;;;;;-3.20;72.58;101075.99;2096460;83;21009;-77
2022/03/08 05:50:53;;;;;;;97.65;36.63;;;;;;;-3.08;72.60;101069.50;2093178;83;21006;-80
2022/03/08 05:53:54;;;;;;;78.52;31.30;;;;;;;-3.00;72.77;101080.45;2095822;83;21576;-80
2022/03/08 05:56:56;;;;;;;62.10;25.17;;;;;;;-2.98;73.01;101089.05;2098073;83;21020;-79
2022/03/08 05:59:57;;;;;;;59.35;24.63;;;;;;;-2.88;73.21;101095.57;2094251;83;20990;-79
2022/03/08 06:02:58;;;;;;;60.65;26.12;;;;;;;-2.79;73.52;101104.34;2097858;83;21327;-78
2022/03/08 06:05:59;;;;;;;62.30;25.70;;;;;;;-2.63;73.58;101101.15;2094616;83;21005;-80
2022/03/08 06:09:01;;;;;;;49.18;22.48;;;;;;;-2.49;73.68;101097.56;2096217;83;21054;-75
2022/03/08 06:12:03;;;;;;;53.90;22.98;;;;;;;-2.33;73.87;101099.97;2096849;83;21013;-78
2022/03/08 06:15:06;;;;;;;48.95;23.00;;;;;;;-2.18;74.15;101103.70;2099671;83;21070;-78
2022/03/08 06:18:08;;;;;;;43.83;21.30;;;;;;;-2.07;74.08;101099.38;2093213;83;21034;-77
2022/03/08 06:21:10;;;;;;;42.75;21.37;;;;;;;-1.93;74.21;101101.41;2092431;83;21052;-76
2022/03/08 06:24:12;;;;;;;49.05;21.93;;;;;;;-1.84;74.14;101104.93;2093640;83;21084;-76
2022/03/08 06:27:13;;;;;;;46.63;20.62;;;;;;;-1.71;74.23;101102.22;2094514;83;21531;-76
2022/03/08 06:30:15;;;;;;;42.10;19.87;;;;;;;-1.57;74.25;101103.41;2095062;83;21024;-76
2022/03/08 06:33:16;;;;;;;41.53;20.20;;;;;;;-1.46;74.25;101104.63;2097242;83;21031;-77
2022/03/08 06:36:17;;;;;;;39.70;19.77;;;;;;;-1.29;74.30;101103.91;2093382;83;21002;-78
2022/03/08 06:39:19;;;;;;;41.18;19.05;;;;;;;-1.18;74.34;101100.84;2105588;83;21057;-78
2022/03/08 06:42:20;;;;;;;43.23;19.75;;;;;;;-1.04;74.29;101108.01;2107545;83;21516;-78
2022/03/08 06:45:21;;;;;;;40.20;19.95;;;;;;;-0.88;74.28;101112.09;2106454;82;21014;-77
2022/03/08 06:48:22;;;;;;;43.40;19.80;;;;;;;-0.80;74.18;101117.34;2106856;83;21061;-77
2022/03/08 06:51:24;;;;;;;47.30;20.35;;;;;;;-0.72;74.12;101118.30;2110684;83;21001;-77
2022/03/08 06:54:25;;;;;;;38.25;20.15;;;;;;;-0.64;74.11;101126.62;2106108;83;21329;-78
2022/03/08 06:57:26;;;;;;;46.88;20.97;;;;;;;-0.59;74.02;101127.26;2111501;82;21081;-81
2022/03/08 07:00:28;;;;;;;48.17;20.88;;;;;;;-0.51;74.06;101124.27;2107493;82;21528;-80
2022/03/08 07:03:29;;;;;;;42.80;20.62;;;;;;;-0.47;73.96;101122.77;2109830;82;20993;-81
2022/03/08 07:06:30;;;;;;;43.02;20.85;;;;;;;-0.42;73.99;101122.56;2110292;83;21552;-76
2022/03/08 07:09:31;;;;;;;51.35;22.02;;;;;;;-0.35;73.96;101138.29;2105788;83;21037;-81
2022/03/08 07:12:34;;;;;;;48.40;20.32;;;;;;;-0.26;73.89;101135.70;2106780;83;21045;-82
2022/03/08 07:15:35;;;;;;;42.73;20.35;;;;;;;-0.22;73.90;101122.92;2107980;83;21031;-77
2022/03/08 07:18:37;;;;;;;40.43;19.95;;;;;;;-0.18;73.95;101124.45;2110214;83;21037;-77
2022/03/08 07:21:39;;;;;;;37.78;17.90;;;;;;;-0.13;73.94;101124.24;2107654;83;21006;-78
2022/03/08 07:24:40;;;;;;;36.58;18.10;;;;;;;-0.08;74.12;101137.45;2109590;83;21837;-76
2022/03/08 07:27:41;;;;;;;35.13;18.05;;;;;;;-0.11;73.89;101142.82;2109021;82;21021;-78
2022/03/08 07:30:42;;;;;;;32.88;15.90;;;;;;;-0.06;73.93;101139.53;2109004;83;21044;-76
2022/03/08 07:33:44;;;;;;;31.20;15.23;;;;;;;-0.03;73.94;101137.21;2109356;82;20982;-77
2022/03/08 07:36:45;;;;;;;32.28;16.42;;;;;;;0.02;73.91;101143.06;2107441;83;21499;-78
2022/03/08 07:39:47;;;;;;;32.40;15.08;;;;;;;0.10;73.88;101137.48;2108377;83;21041;-82
2022/03/08 07:42:48;;;;;;;33.85;16.45;;;;;;;0.15;73.81;101135.49;2111609;82;20998;-78
2022/03/08 07:45:50;;;;;;;29.32;15.50;;;;;;;0.16;73.81;101142.39;2107846;83;21060;-77
2022/03/08 07:48:51;;;;;;;37.75;18.07;;;;;;;0.16;73.78;101134.09;2106035;83;21445;-78
2022/03/08 07:51:53;;;;;;;35.28;17.40;;;;;;;0.20;73.87;101150.01;2109629;83;21078;-78
2022/03/08 07:54:55;;;;;;;25.85;13.32;;;;;;;0.28;73.87;101152.69;2109899;83;21609;-76
2022/03/08 07:57:57;;;;;;;32.35;14.63;;;;;;;0.29;73.78;101157.84;2110064;83;21026;-76
2022/03/08 08:00:59;;;;;;;30.52;14.10;;;;;;;0.34;73.91;101149.33;2109755;83;21473;-77
2022/03/08 08:04:01;;;;;;;34.33;17.05;;;;;;;0.40;73.72;101144.27;2106660;83;21082;-79
2022/03/08 08:07:02;;;;;;;34.05;16.97;;;;;;;0.48;73.80;101142.55;2112775;83;21025;-81
2022/03/08 08:10:06;;;;;;;32.15;16.07;;;;;;;0.50;73.53;101140.72;2105937;83;21525;-80
2022/03/08 08:13:07;;;;;;;29.12;13.68;;;;;;;0.50;73.54;101140.72;2107086;83;20976;-78
2022/03/08 08:16:09;;;;;;;21.90;11.85;;;;;;;0.60;73.58;101136.73;2109232;83;21026;-78
2022/03/08 08:19:11;;;;;;;24.05;13.38;;;;;;;0.65;73.37;101132.13;2107723;83;20991;-79
2022/03/08 08:22:13;;;;;;;24.65;12.07;;;;;;;0.75;73.28;101139.02;2109777;83;21018;-77
2022/03/08 08:25:14;;;;;;;24.27;13.68;;;;;;;0.87;73.40;101134.02;2109811;83;21045;-80
2022/03/08 08:28:16;;;;;;;23.22;12.33;;;;;;;0.97;73.32;101134.83;2109496;83;21004;-79
2022/03/08 08:31:18;;;;;;;21.00;11.83;;;;;;;1.06;73.15;101135.64;2110469;82;21012;-78
2022/03/08 08:34:19;;;;;;;22.25;11.50;;;;;;;1.14;73.06;101138.70;2107960;83;21045;-82
2022/03/08 08:37:21;;;;;;;23.60;11.97;;;;;;;1.21;72.59;101144.00;2106707;83;21060;-79
2022/03/08 08:40:22;;;;;;;20.70;11.08;;;;;;;1.30;72.57;101147.42;2067301;83;21069;-79
2022/03/08 08:43:24;;;;;;;20.32;10.63;;;;;;;1.38;72.30;101141.79;2064147;84;21080;-80
2022/03/08 08:46:25;;;;;;;21.45;9.53;;;;;;;1.48;72.35;101136.89;2069489;84;21621;-80
2022/03/08 08:49:27;;;;;;;18.95;10.25;;;;;;;1.61;72.00;101141.84;2065383;84;21082;-83
2022/03/08 08:52:29;;;;;;;22.07;10.82;;;;;;;1.68;71.30;101143.64;2064396;84;21501;-82
2022/03/08 08:55:31;;;;;;;20.02;10.70;;;;;;;1.70;71.34;101138.71;2065916;84;20984;-82
2022/03/08 08:58:32;;;;;;;23.62;11.45;;;;;;;1.74;71.26;101143.30;2043035;84;21056;-79
2022/03/08 09:01:34;;;;;;;21.15;10.48;;;;;;;1.84;71.11;101144.96;2063770;84;20986;-79
2022/03/08 09:04:36;;;;;;;22.27;12.50;;;;;;;1.82;70.00;101150.73;2065911;84;21486;-82
2022/03/08 09:07:37;;;;;;;24.82;11.70;;;;;;;1.75;70.52;101143.70;2066557;84;21000;-80
2022/03/08 09:10:39;;;;;;;23.73;10.53;;;;;;;1.88;70.90;101151.22;2067681;84;21006;-79
2022/03/08 09:13:43;;;;;;;22.80;11.65;;;;;;;1.95;70.34;101152.58;2067926;84;21049;-79
2022/03/08 09:16:44;;;;;;;18.32;9.38;;;;;;;2.02;70.22;101151.77;2048809;84;21093;-79
2022/03/08 09:19:46;;;;;;;9.90;6.60;;;;;;;2.08;69.82;101154.03;2067121;84;21634;-83
2022/03/08 09:22:48;;;;;;;12.07;6.10;;;;;;;2.10;68.97;101158.72;2067324;84;21067;-81
2022/03/08 09:25:51;;;;;;;26.33;14.80;;;;;;;2.26;66.78;101160.48;2066233;84;21465;-81
2022/03/08 09:28:53;;;;;;;11.78;6.47;;;;;;;2.32;67.74;101156.20;2066172;84;20990;-77
2022/03/08 09:31:54;;;;;;;13.62;6.37;;;;;;;2.51;67.90;101152.89;2061807;84;21510;-79
2022/03/08 09:34:56;;;;;;;18.12;6.87;;;;;;;2.89;66.60;101157.16;2072916;84;20994;-80
2022/03/08 09:37:58;;;;;;;15.50;7.70;;;;;;;2.81;65.77;101153.31;2068891;83;21028;-81
2022/03/08 09:41:06;;;;;;;14.78;7.28;;;;;;;2.87;65.97;101153.80;2109532;83;21031;-78
2022/03/08 09:44:11;;;;;;;14.83;7.15;;;;;;;2.96;66.25;101154.16;2107290;83;21119;-82
2022/03/08 09:47:13;;;;;;;13.93;6.20;;;;;;;3.50;64.49;101149.95;2105249;83;21030;-79
2022/03/08 09:50:16;;;;;;;13.48;6.75;;;;;;;3.22;62.31;101148.66;2111192;83;21583;-80
2022/03/08 09:53:18;;;;;;;17.23;6.97;;;;;;;3.55;63.18;101138.70;2108212;83;21492;-80
2022/03/08 09:56:21;;;;;;;15.60;7.40;;;;;;;3.75;62.48;101137.91;2105553;83;21676;-82
2022/03/08 09:59:29;;;;;;;14.68;7.85;;;;;;;3.80;61.64;101137.98;2107309;83;21503;-81
2022/03/08 10:02:43;;;;;;;17.20;7.47;;;;;;;3.91;60.93;101143.83;2107600;83;21038;-80
2022/03/08 10:05:45;;;;;;;11.48;5.83;;;;;;;4.20;63.12;101127.98;2108952;83;21727;-78
2022/03/08 10:08:49;;;;;;;11.95;5.95;;;;;;;4.89;62.82;101129.42;2103938;83;21027;-78
2022/03/08 10:11:53;;;;;;;9.43;5.12;;;;;;;5.44;62.44;101138.38;2108378;83;21584;-80
2022/03/08 10:14:58;;;;;;;12.55;5.80;;;;;;;5.61;55.92;101126.17;2107769;83;21567;-78
2022/03/08 10:17:59;;;;;;;8.90;4.78;;;;;;;5.11;59.30;101126.16;2109257;82;21067;-81
2022/03/08 10:21:01;;;;;;;9.33;5.33;;;;;;;5.47;58.29;101122.38;2110655;82;21053;-80
2022/03/08 10:24:19;;;;;;;9.58;5.42;;;;;;;5.46;57.99;101128.56;2108746;82;21029;-78
2022/03/08 10:27:21;;;;;;;9.48;5.25;;;;;;;5.41;57.30;101124.96;2108766;83;21560;-76
2022/03/08 10:30:25;;;;;;;11.93;4.87;;;;;;;5.25;57.76;101128.30;2106562;83;20983;-78
2022/03/08 10:33:40;;;;;;;8.23;4.80;;;;;;;5.55;58.68;101126.62;2110866;83;21022;-80
2022/03/08 10:36:42;;;;;;;9.40;4.47;;;;;;;5.77;58.07;101122.80;2107445;83;21010;-79
2022/03/08 10:39:59;;;;;;;11.22;3.77;;;;;;;6.11;57.98;101116.86;2107656;83;21841;-79
2022/03/08 10:43:05;;;;;;;9.08;5.37;;;;;;;6.05;56.82;101118.16;2109826;83;21081;-78
2022/03/08 10:46:12;;;;;;;8.88;5.00;;;;;;;5.34;56.03;101112.69;2105933;83;21063;-80
2022/03/08 10:49:15;;;;;;;12.00;5.20;;;;;;;5.29;56.82;101117.44;2107982;82;21070;-78
2022/03/08 10:52:17;;;;;;;11.48;5.55;;;;;;;5.69;57.04;101107.16;2110770;83;21018;-79
2022/03/08 10:55:31;;;;;;;10.32;4.83;;;;;;;5.82;56.54;101101.37;2109944;82;21010;-80
2022/03/08 10:58:33;;;;;;;10.13;5.85;;;;;;;6.18;56.92;101096.54;2108959;83;21574;-79
2022/03/08 11:01:35;;;;;;;10.95;4.92;;;;;;;6.42;55.94;101090.37;2107272;82;20997;-80
2022/03/08 11:04:36;;;;;;;10.85;5.33;;;;;;;6.36;55.94;101084.25;2112639;83;21524;-79
2022/03/08 11:07:39;;;;;;;13.05;5.33;;;;;;;6.53;56.58;101081.16;2106733;83;22257;-79
2022/03/08 11:10:41;;;;;;;8.18;4.60;;;;;;;6.92;56.01;101071.97;2109284;83;21588;-80
2022/03/08 11:13:43;;;;;;;9.40;4.22;;;;;;;6.98;55.71;101065.38;2104835;83;21074;-81
2022/03/08 11:16:50;;;;;;;10.58;5.47;;;;;;;7.00;54.55;101052.91;2110345;82;22453;-83
2022/03/08 11:19:53;;;;;;;8.98;4.42;;;;;;;6.95;53.87;101051.11;2107559;83;21042;-79
2022/03/08 11:22:57;;;;;;;12.05;4.28;;;;;;;7.03;54.23;101047.38;2106990;83;21033;-78
2022/03/08 11:26:00;;;;;;;8.70;4.92;;;;;;;7.03;53.82;101050.52;2104351;83;21025;-79
2022/03/08 11:29:03;;;;;;;10.40;4.70;;;;;;;7.09;52.89;101042.10;2107006;83;21002;-80
2022/03/08 11:32:08;;;;;;;12.00;5.17;;;;;;;7.27;54.18;101038.50;2108925;83;21045;-78
2022/03/08 11:35:20;;;;;;;8.80;4.92;;;;;;;7.56;54.17;101029.53;2105883;82;21049;-79
2022/03/08 11:38:22;;;;;;;13.18;5.17;;;;;;;7.79;53.95;101021.88;2108421;82;21576;-79
2022/03/08 11:41:27;;;;;;;9.63;4.87;;;;;;;7.87;53.92;101023.89;2086495;83;21325;-83
2022/03/08 11:44:37;;;;;;;9.05;5.22;;;;;;;7.92;53.12;101019.06;2088260;83;21633;-80
2022/03/08 11:47:54;;;;;;;10.13;5.23;;;;;;;7.92;53.13;101028.31;2053664;86;21003;-82
2022/03/08 11:51:00;;;;;;;12.82;5.47;;;;;;;7.97;53.07;101019.53;2091594;83;20998;-80
2022/03/08 11:54:24;;;;;;;10.05;5.08;;;;;;;8.07;52.67;101019.09;2062839;84;21574;-81
2022/03/08 11:57:50;;;;;;;10.00;4.42;;;;;;;8.05;52.18;101014.44;2094199;84;21076;-84
2022/03/08 12:00:58;;;;;;;11.38;5.10;;;;;;;7.90;51.18;101010.91;2092845;83;21084;-81
2022/03/08 12:04:11;;;;;;;9.40;5.83;;;;;;;7.65;51.40;101012.92;2093745;84;21504;-81
2022/03/08 12:07:26;;;;;;;8.73;4.97;;;;;;;7.79;51.84;101004.70;2092050;84;21056;-79
2022/03/08 12:10:29;;;;;;;8.70;4.80;;;;;;;7.71;51.35;101004.48;2089082;83;21101;-78
2022/03/08 12:13:37;;;;;;;10.03;4.55;;;;;;;7.81;51.88;101004.59;2095178;83;22486;-80
2022/03/08 12:16:43;;;;;;;11.12;5.75;;;;;;;7.89;51.04;101002.15;2095224;84;21029;-83
2022/03/08 12:19:52;;;;;;;8.53;5.12;;;;;;;7.77;51.69;100997.41;2095034;83;21101;-80
2022/03/08 12:23:05;;;;;;;7.05;4.17;;;;;;;7.66;51.07;100994.81;2096887;84;21061;-82
2022/03/08 12:26:50;;;;;;;9.13;4.45;;;;;;;7.58;50.89;100998.56;2085659;83;21033;-80
2022/03/08 12:30:03;;;;;;;8.13;4.10;;;;;;;7.56;51.10;100993.88;2088900;83;21044;-80
2022/03/08 12:33:04;;;;;;;7.42;4.85;;;;;;;7.63;51.15;100977.90;2091136;83;21041;-82
2022/03/08 12:36:06;;;;;;;11.73;5.30;;;;;;;7.68;51.32;100974.37;2095731;83;21028;-81
2022/03/08 12:39:08;;;;;;;8.30;4.65;;;;;;;7.71;50.77;100974.11;2089077;84;21886;-81
2022/03/08 12:42:20;;;;;;;10.98;4.58;;;;;;;7.64;50.16;100975.11;2093626;83;21078;-79
2022/03/08 12:45:29;;;;;;;12.20;4.92;;;;;;;7.46;50.61;100977.96;2093235;83;21023;-79
2022/03/08 12:48:31;;;;;;;7.90;4.97;;;;;;;7.36;50.60;100971.26;2093456;83;21075;-81
2022/03/08 12:51:37;;;;;;;6.72;4.50;;;;;;;7.38;50.79;100976.43;2094206;83;20971;-80
2022/03/08 12:54:42;;;;;;;7.00;4.37;;;;;;;7.41;50.65;100973.05;2093906;83;21010;-80
2022/03/08 12:57:54;;;;;;;9.83;4.75;;;;;;;7.37;50.13;100962.84;2097750;83;21007;-79
2022/03/08 13:01:05;;;;;;;10.75;5.40;;;;;;;7.25;49.64;100958.58;2094840;83;21023;-83
2022/03/08 13:04:06;;;;;;;;;;;;;;;7.12;50.42;100953.44;2099384;83;21031;-80
2022/03/08 13:07:12;;;;;;;10.43;5.60;;;;;;;7.10;50.17;100960.19;2093803;83;20398;-78
2022/03/08 13:10:13;;;;;;;8.00;5.17;;;;;;;7.10;49.75;100943.03;2094406;83;21066;-82
2022/03/08 13:13:15;;;;;;;10.35;5.20;;;;;;;6.98;50.05;100953.23;2094839;83;21035;-80
2022/03/08 13:16:22;;;;;;;11.73;5.25;;;;;;;6.95;49.79;100949.52;2097366;83;21506;-80
2022/03/08 13:19:24;;;;;;;7.55;5.80;;;;;;;6.96;50.30;100943.30;2093547;83;21134;-81
2022/03/08 13:22:26;;;;;;;10.93;5.45;;;;;;;7.00;50.35;100947.36;2093616;83;20995;-81
2022/03/08 13:25:29;;;;;;;14.80;6.10;;;;;;;7.04;50.28;100945.30;2095416;83;21089;-80
2022/03/08 13:28:35;;;;;;;9.75;5.40;;;;;;;7.06;49.50;100949.50;2095653;83;21045;-79
2022/03/08 13:31:47;;;;;;;9.18;4.75;;;;;;;7.08;50.32;100947.58;2092267;83;21007;-82
2022/03/08 13:35:02;;;;;;;7.80;4.85;;;;;;;7.12;50.45;100950.34;2094981;83;21090;-83
2022/03/08 13:38:04;;;;;;;8.48;4.67;;;;;;;7.15;50.00;100960.66;2097063;83;20975;-81
2022/03/08 13:41:13;;;;;;;7.65;4.70;;;;;;;7.17;50.36;100952.11;2097227;83;21613;-82
2022/03/08 13:44:18;;;;;;;9.18;4.72;;;;;;;7.16;49.73;100958.84;2094566;83;21043;-82
2022/03/08 13:47:19;;;;;;;9.60;5.03;;;;;;;7.09;49.95;100957.66;2095901;83;21026;-81
2022/03/08 13:50:25;;;;;;;8.68;5.10;;;;;;;7.06;50.14;100957.91;2097528;83;21433;-78
2022/03/08 13:53:27;;;;;;;9.15;5.03;;;;;;;6.96;49.65;100962.61;2095645;83;21045;-82
2022/03/08 13:56:32;;;;;;;7.85;4.17;;;;;;;6.93;49.96;100958.06;2096655;83;21625;-83
2022/03/08 13:59:35;;;;;;;8.48;4.58;;;;;;;6.95;50.28;100947.75;2090749;83;21089;-80
2022/03/08 14:02:37;;;;;;;7.53;4.50;;;;;;;6.92;49.92;100945.81;2095289;83;21023;-82